sensor_id;sensor_type;location;lat;lon;timestamp;temperature;humidity
37974;DHT22;23796;51.458;7.000;2024-03-02T00:00:05;8.20;89.10
37974;DHT22;23796;51.458;7.000;2024-03-02T00:02:47;8.30;89.10
37974;DHT22;23796;51.458;7.000;2024-03-02T00:07:45;8.50;88.70
37974;DHT22;23796;51.458;7.000;2024-03-02T00:10:14;8.50;88.60
37974;DHT22;23796;51.458;7.000;2024-03-02T00:12:40;8.60;88.50
37974;DHT22;23796;51.458;7.000;2024-03-02T00:17:55;8.60;88.30
37974;DHT22;23796;51.458;7.000;2024-03-02T00:20:22;8.60;88.30
37974;DHT22;23796;51.458;7.000;2024-03-02T00:22:49;8.60;88.40
37974;DHT22;23796;51.458;7.000;2024-03-02T00:25:15;8.60;88.50
37974;DHT22;23796;51.458;7.000;2024-03-02T00:27:40;8.60;88.40
37974;DHT22;23796;51.458;7.000;2024-03-02T00:33:06;8.60;88.20
37974;DHT22;23796;51.458;7.000;2024-03-02T00:35:33;8.60;88.30
37974;DHT22;23796;51.458;7.000;2024-03-02T00:38:02;8.60;88.30
37974;DHT22;23796;51.458;7.000;2024-03-02T00:40:29;8.60;88.20
37974;DHT22;23796;51.458;7.000;2024-03-02T00:42:56;8.70;88.00
37974;DHT22;23796;51.458;7.000;2024-03-02T00:45:21;8.90;87.60
37974;DHT22;23796;51.458;7.000;2024-03-02T00:47:47;9.00;87.20
37974;DHT22;23796;51.458;7.000;2024-03-02T00:50:13;9.10;86.80
37974;DHT22;23796;51.458;7.000;2024-03-02T00:52:40;9.10;86.50
37974;DHT22;23796;51.458;7.000;2024-03-02T00:55:07;9.20;86.20
37974;DHT22;23796;51.458;7.000;2024-03-02T00:57:34;9.30;86.10
37974;DHT22;23796;51.458;7.000;2024-03-02T01:00:00;9.30;85.70
37974;DHT22;23796;51.458;7.000;2024-03-02T01:02:28;9.40;85.50
37974;DHT22;23796;51.458;7.000;2024-03-02T01:04:54;9.40;85.40
37974;DHT22;23796;51.458;7.000;2024-03-02T01:07:20;9.50;85.30
37974;DHT22;23796;51.458;7.000;2024-03-02T01:09:48;9.50;85.20
37974;DHT22;23796;51.458;7.000;2024-03-02T01:12:13;9.50;85.00
37974;DHT22;23796;51.458;7.000;2024-03-02T01:14:39;9.60;85.00
37974;DHT22;23796;51.458;7.000;2024-03-02T01:17:07;9.60;84.80
37974;DHT22;23796;51.458;7.000;2024-03-02T01:19:32;9.60;84.70
37974;DHT22;23796;51.458;7.000;2024-03-02T01:21:58;9.60;84.60
37974;DHT22;23796;51.458;7.000;2024-03-02T01:24:23;9.60;84.50
37974;DHT22;23796;51.458;7.000;2024-03-02T01:26:49;9.60;84.50
37974;DHT22;23796;51.458;7.000;2024-03-02T01:29:15;9.70;84.30
37974;DHT22;23796;51.458;7.000;2024-03-02T01:31:40;9.70;84.20
37974;DHT22;23796;51.458;7.000;2024-03-02T01:34:08;9.70;84.00
37974;DHT22;23796;51.458;7.000;2024-03-02T01:36:36;9.80;83.90
37974;DHT22;23796;51.458;7.000;2024-03-02T01:39:01;9.80;83.70
37974;DHT22;23796;51.458;7.000;2024-03-02T01:41:34;9.80;83.40
37974;DHT22;23796;51.458;7.000;2024-03-02T01:43:59;9.80;83.30
37974;DHT22;23796;51.458;7.000;2024-03-02T01:46:25;9.80;83.30
37974;DHT22;23796;51.458;7.000;2024-03-02T01:48:53;9.70;83.40
37974;DHT22;23796;51.458;7.000;2024-03-02T01:51:18;9.60;83.70
37974;DHT22;23796;51.458;7.000;2024-03-02T01:53:44;9.50;83.90
37974;DHT22;23796;51.458;7.000;2024-03-02T01:56:10;9.40;84.10
37974;DHT22;23796;51.458;7.000;2024-03-02T01:58:36;9.30;84.30
37974;DHT22;23796;51.458;7.000;2024-03-02T02:01:02;9.30;84.40
37974;DHT22;23796;51.458;7.000;2024-03-02T02:03:28;9.30;84.50
37974;DHT22;23796;51.458;7.000;2024-03-02T02:05:53;9.30;84.50
37974;DHT22;23796;51.458;7.000;2024-03-02T02:08:19;9.30;84.40
37974;DHT22;23796;51.458;7.000;2024-03-02T02:10:44;9.30;84.40
37974;DHT22;23796;51.458;7.000;2024-03-02T02:13:12;9.30;84.30
37974;DHT22;23796;51.458;7.000;2024-03-02T02:15:38;9.30;84.20
37974;DHT22;23796;51.458;7.000;2024-03-02T02:18:04;9.40;84.10
37974;DHT22;23796;51.458;7.000;2024-03-02T02:20:29;9.40;84.10
37974;DHT22;23796;51.458;7.000;2024-03-02T02:23:02;9.40;84.10
37974;DHT22;23796;51.458;7.000;2024-03-02T02:25:29;9.50;83.90
37974;DHT22;23796;51.458;7.000;2024-03-02T02:27:55;9.60;83.80
37974;DHT22;23796;51.458;7.000;2024-03-02T02:30:29;9.70;83.50
37974;DHT22;23796;51.458;7.000;2024-03-02T02:32:55;9.70;83.40
37974;DHT22;23796;51.458;7.000;2024-03-02T02:35:20;9.80;83.20
37974;DHT22;23796;51.458;7.000;2024-03-02T02:37:47;9.80;83.10
37974;DHT22;23796;51.458;7.000;2024-03-02T02:40:13;9.80;82.90
37974;DHT22;23796;51.458;7.000;2024-03-02T02:42:39;9.90;82.90
37974;DHT22;23796;51.458;7.000;2024-03-02T02:45:06;9.90;82.90
37974;DHT22;23796;51.458;7.000;2024-03-02T02:47:34;9.90;82.80
37974;DHT22;23796;51.458;7.000;2024-03-02T02:50:03;9.90;82.60
37974;DHT22;23796;51.458;7.000;2024-03-02T02:52:33;9.90;82.70
37974;DHT22;23796;51.458;7.000;2024-03-02T02:55:01;10.00;82.50
37974;DHT22;23796;51.458;7.000;2024-03-02T02:57:28;10.00;82.50
37974;DHT22;23796;51.458;7.000;2024-03-02T02:59:55;10.00;82.60
37974;DHT22;23796;51.458;7.000;2024-03-02T03:02:21;10.00;82.30
37974;DHT22;23796;51.458;7.000;2024-03-02T03:04:46;10.00;82.10
37974;DHT22;23796;51.458;7.000;2024-03-02T03:07:12;10.00;82.10
37974;DHT22;23796;51.458;7.000;2024-03-02T03:09:37;10.00;82.20
37974;DHT22;23796;51.458;7.000;2024-03-02T03:12:04;10.10;82.10
37974;DHT22;23796;51.458;7.000;2024-03-02T03:14:30;10.10;82.10
37974;DHT22;23796;51.458;7.000;2024-03-02T03:16:55;10.10;81.90
37974;DHT22;23796;51.458;7.000;2024-03-02T03:19:21;10.10;82.00
37974;DHT22;23796;51.458;7.000;2024-03-02T03:21:46;10.10;81.90
37974;DHT22;23796;51.458;7.000;2024-03-02T03:24:12;10.10;81.90
37974;DHT22;23796;51.458;7.000;2024-03-02T03:26:40;10.10;81.90
37974;DHT22;23796;51.458;7.000;2024-03-02T03:29:08;10.10;81.90
37974;DHT22;23796;51.458;7.000;2024-03-02T03:31:34;10.10;81.90
37974;DHT22;23796;51.458;7.000;2024-03-02T03:33:59;10.10;81.80
37974;DHT22;23796;51.458;7.000;2024-03-02T03:36:25;10.10;81.90
37974;DHT22;23796;51.458;7.000;2024-03-02T03:38:53;10.10;81.90
37974;DHT22;23796;51.458;7.000;2024-03-02T03:41:18;10.10;81.70
37974;DHT22;23796;51.458;7.000;2024-03-02T03:43:44;10.10;81.90
37974;DHT22;23796;51.458;7.000;2024-03-02T03:46:12;10.10;81.90
37974;DHT22;23796;51.458;7.000;2024-03-02T03:48:40;10.10;81.90
37974;DHT22;23796;51.458;7.000;2024-03-02T03:51:05;10.10;81.90
37974;DHT22;23796;51.458;7.000;2024-03-02T03:53:31;10.10;82.00
37974;DHT22;23796;51.458;7.000;2024-03-02T03:55:56;10.00;82.00
37974;DHT22;23796;51.458;7.000;2024-03-02T03:58:24;10.00;82.00
37974;DHT22;23796;51.458;7.000;2024-03-02T04:00:52;10.00;82.20
37974;DHT22;23796;51.458;7.000;2024-03-02T04:03:18;9.90;82.40
37974;DHT22;23796;51.458;7.000;2024-03-02T04:05:46;9.90;82.50
37974;DHT22;23796;51.458;7.000;2024-03-02T04:08:14;9.80;82.70
37974;DHT22;23796;51.458;7.000;2024-03-02T04:10:39;9.70;83.00
37974;DHT22;23796;51.458;7.000;2024-03-02T04:13:06;9.70;83.20
37974;DHT22;23796;51.458;7.000;2024-03-02T04:15:32;9.70;83.30
37974;DHT22;23796;51.458;7.000;2024-03-02T04:18:00;9.50;83.70
37974;DHT22;23796;51.458;7.000;2024-03-02T04:20:26;9.40;84.10
37974;DHT22;23796;51.458;7.000;2024-03-02T04:22:51;9.30;84.40
37974;DHT22;23796;51.458;7.000;2024-03-02T04:25:17;9.20;84.70
37974;DHT22;23796;51.458;7.000;2024-03-02T04:27:42;9.20;85.00
37974;DHT22;23796;51.458;7.000;2024-03-02T04:30:11;9.30;84.90
37974;DHT22;23796;51.458;7.000;2024-03-02T04:32:36;9.30;84.80
37974;DHT22;23796;51.458;7.000;2024-03-02T04:35:02;9.30;84.70
37974;DHT22;23796;51.458;7.000;2024-03-02T04:37:28;9.30;84.80
37974;DHT22;23796;51.458;7.000;2024-03-02T04:39:55;9.30;84.80
37974;DHT22;23796;51.458;7.000;2024-03-02T04:42:21;9.20;85.20
37974;DHT22;23796;51.458;7.000;2024-03-02T04:44:48;9.20;85.40
37974;DHT22;23796;51.458;7.000;2024-03-02T04:47:16;9.10;85.50
37974;DHT22;23796;51.458;7.000;2024-03-02T04:49:41;9.00;85.80
37974;DHT22;23796;51.458;7.000;2024-03-02T04:52:07;8.90;86.10
37974;DHT22;23796;51.458;7.000;2024-03-02T04:54:32;8.80;86.20
37974;DHT22;23796;51.458;7.000;2024-03-02T04:57:00;8.80;86.40
37974;DHT22;23796;51.458;7.000;2024-03-02T04:59:26;8.80;86.50
37974;DHT22;23796;51.458;7.000;2024-03-02T05:01:51;8.90;86.50
37974;DHT22;23796;51.458;7.000;2024-03-02T05:04:19;9.00;86.30
37974;DHT22;23796;51.458;7.000;2024-03-02T05:06:45;8.90;86.30
37974;DHT22;23796;51.458;7.000;2024-03-02T05:09:17;8.90;86.50
37974;DHT22;23796;51.458;7.000;2024-03-02T05:11:42;8.80;86.80
37974;DHT22;23796;51.458;7.000;2024-03-02T05:14:24;8.70;86.90
37974;DHT22;23796;51.458;7.000;2024-03-02T05:16:52;8.70;87.10
37974;DHT22;23796;51.458;7.000;2024-03-02T05:19:18;8.70;87.20
37974;DHT22;23796;51.458;7.000;2024-03-02T05:21:43;8.70;87.10
37974;DHT22;23796;51.458;7.000;2024-03-02T05:24:09;8.70;87.20
37974;DHT22;23796;51.458;7.000;2024-03-02T05:26:35;8.60;87.40
37974;DHT22;23796;51.458;7.000;2024-03-02T05:29:00;8.50;87.70
37974;DHT22;23796;51.458;7.000;2024-03-02T05:31:26;8.40;88.00
37974;DHT22;23796;51.458;7.000;2024-03-02T05:33:51;8.40;88.20
37974;DHT22;23796;51.458;7.000;2024-03-02T05:36:17;8.30;88.40
37974;DHT22;23796;51.458;7.000;2024-03-02T05:38:43;8.30;88.60
37974;DHT22;23796;51.458;7.000;2024-03-02T05:41:09;8.20;88.70
37974;DHT22;23796;51.458;7.000;2024-03-02T05:43:36;8.20;88.90
37974;DHT22;23796;51.458;7.000;2024-03-02T05:46:02;8.20;89.00
37974;DHT22;23796;51.458;7.000;2024-03-02T05:48:28;8.10;89.20
37974;DHT22;23796;51.458;7.000;2024-03-02T05:50:56;8.10;89.50
37974;DHT22;23796;51.458;7.000;2024-03-02T05:53:22;8.10;89.50
37974;DHT22;23796;51.458;7.000;2024-03-02T05:55:50;8.10;89.60
37974;DHT22;23796;51.458;7.000;2024-03-02T05:58:20;8.00;89.80
37974;DHT22;23796;51.458;7.000;2024-03-02T06:00:58;8.00;89.90
37974;DHT22;23796;51.458;7.000;2024-03-02T06:03:23;8.00;90.00
37974;DHT22;23796;51.458;7.000;2024-03-02T06:05:49;8.00;90.00
37974;DHT22;23796;51.458;7.000;2024-03-02T06:08:14;8.00;90.10
37974;DHT22;23796;51.458;7.000;2024-03-02T06:10:40;7.90;90.10
37974;DHT22;23796;51.458;7.000;2024-03-02T06:13:06;7.90;90.20
37974;DHT22;23796;51.458;7.000;2024-03-02T06:15:31;7.90;90.20
37974;DHT22;23796;51.458;7.000;2024-03-02T06:17:57;7.90;90.30
37974;DHT22;23796;51.458;7.000;2024-03-02T06:20:23;7.90;90.40
37974;DHT22;23796;51.458;7.000;2024-03-02T06:22:51;7.90;90.50
37974;DHT22;23796;51.458;7.000;2024-03-02T06:25:17;7.90;90.50
37974;DHT22;23796;51.458;7.000;2024-03-02T06:27:44;7.90;90.40
37974;DHT22;23796;51.458;7.000;2024-03-02T06:30:10;8.00;90.30
37974;DHT22;23796;51.458;7.000;2024-03-02T06:32:39;8.00;90.30
37974;DHT22;23796;51.458;7.000;2024-03-02T06:35:09;7.90;90.20
37974;DHT22;23796;51.458;7.000;2024-03-02T06:37:36;7.90;90.30
37974;DHT22;23796;51.458;7.000;2024-03-02T06:40:02;7.90;90.40
37974;DHT22;23796;51.458;7.000;2024-03-02T06:42:28;7.90;90.40
37974;DHT22;23796;51.458;7.000;2024-03-02T06:44:58;7.90;90.50
37974;DHT22;23796;51.458;7.000;2024-03-02T06:47:27;7.90;90.50
37974;DHT22;23796;51.458;7.000;2024-03-02T06:49:52;7.90;90.60
37974;DHT22;23796;51.458;7.000;2024-03-02T06:52:18;7.90;90.50
37974;DHT22;23796;51.458;7.000;2024-03-02T06:54:44;7.90;90.60
37974;DHT22;23796;51.458;7.000;2024-03-02T06:57:09;7.80;90.80
37974;DHT22;23796;51.458;7.000;2024-03-02T06:59:35;7.90;90.60
37974;DHT22;23796;51.458;7.000;2024-03-02T07:02:01;7.90;90.50
37974;DHT22;23796;51.458;7.000;2024-03-02T07:04:27;7.80;90.60
37974;DHT22;23796;51.458;7.000;2024-03-02T07:06:52;7.80;90.60
37974;DHT22;23796;51.458;7.000;2024-03-02T07:09:20;7.80;90.80
37974;DHT22;23796;51.458;7.000;2024-03-02T07:11:48;7.80;90.80
37974;DHT22;23796;51.458;7.000;2024-03-02T07:14:16;7.80;90.60
37974;DHT22;23796;51.458;7.000;2024-03-02T07:16:42;7.90;90.60
37974;DHT22;23796;51.458;7.000;2024-03-02T07:19:10;8.00;90.40
37974;DHT22;23796;51.458;7.000;2024-03-02T07:21:38;8.10;90.20
37974;DHT22;23796;51.458;7.000;2024-03-02T07:24:04;8.10;90.00
37974;DHT22;23796;51.458;7.000;2024-03-02T07:26:30;8.30;89.50
37974;DHT22;23796;51.458;7.000;2024-03-02T07:28:58;8.40;89.20
37974;DHT22;23796;51.458;7.000;2024-03-02T07:31:24;8.60;88.60
37974;DHT22;23796;51.458;7.000;2024-03-02T07:33:50;8.70;88.30
37974;DHT22;23796;51.458;7.000;2024-03-02T07:36:18;8.70;88.00
37974;DHT22;23796;51.458;7.000;2024-03-02T07:38:44;8.80;87.90
37974;DHT22;23796;51.458;7.000;2024-03-02T07:41:10;8.80;87.70
37974;DHT22;23796;51.458;7.000;2024-03-02T07:43:36;8.80;87.70
37974;DHT22;23796;51.458;7.000;2024-03-02T07:46:02;8.80;87.60
37974;DHT22;23796;51.458;7.000;2024-03-02T07:48:28;8.80;87.60
37974;DHT22;23796;51.458;7.000;2024-03-02T07:50:54;8.80;87.60
37974;DHT22;23796;51.458;7.000;2024-03-02T07:53:19;8.70;87.80
37974;DHT22;23796;51.458;7.000;2024-03-02T07:55:45;8.70;88.00
37974;DHT22;23796;51.458;7.000;2024-03-02T07:58:11;8.60;88.00
37974;DHT22;23796;51.458;7.000;2024-03-02T08:00:39;8.60;88.10
37974;DHT22;23796;51.458;7.000;2024-03-02T08:03:05;8.70;88.10
37974;DHT22;23796;51.458;7.000;2024-03-02T08:05:30;8.70;88.20
37974;DHT22;23796;51.458;7.000;2024-03-02T08:07:56;8.70;88.20
37974;DHT22;23796;51.458;7.000;2024-03-02T08:10:22;8.70;88.20
37974;DHT22;23796;51.458;7.000;2024-03-02T08:12:47;8.80;88.10
37974;DHT22;23796;51.458;7.000;2024-03-02T08:15:13;8.90;87.70
37974;DHT22;23796;51.458;7.000;2024-03-02T08:17:39;9.00;87.50
37974;DHT22;23796;51.458;7.000;2024-03-02T08:20:11;9.10;87.30
37974;DHT22;23796;51.458;7.000;2024-03-02T08:22:37;9.20;87.00
37974;DHT22;23796;51.458;7.000;2024-03-02T08:25:03;9.20;87.10
37974;DHT22;23796;51.458;7.000;2024-03-02T08:27:29;9.20;87.10
37974;DHT22;23796;51.458;7.000;2024-03-02T08:29:55;9.20;87.00
37974;DHT22;23796;51.458;7.000;2024-03-02T08:32:20;9.30;86.70
37974;DHT22;23796;51.458;7.000;2024-03-02T08:34:46;9.30;86.80
37974;DHT22;23796;51.458;7.000;2024-03-02T08:37:12;9.30;86.60
37974;DHT22;23796;51.458;7.000;2024-03-02T08:39:37;9.40;86.40
37974;DHT22;23796;51.458;7.000;2024-03-02T08:42:03;9.50;86.10
37974;DHT22;23796;51.458;7.000;2024-03-02T08:44:29;9.60;85.80
37974;DHT22;23796;51.458;7.000;2024-03-02T08:46:55;9.70;85.60
37974;DHT22;23796;51.458;7.000;2024-03-02T08:49:21;9.70;85.60
37974;DHT22;23796;51.458;7.000;2024-03-02T08:51:47;9.70;85.80
37974;DHT22;23796;51.458;7.000;2024-03-02T08:54:22;9.80;85.70
37974;DHT22;23796;51.458;7.000;2024-03-02T08:56:52;9.80;85.40
37974;DHT22;23796;51.458;7.000;2024-03-02T08:59:18;9.90;85.10
37974;DHT22;23796;51.458;7.000;2024-03-02T09:01:43;10.00;84.90
37974;DHT22;23796;51.458;7.000;2024-03-02T09:04:10;10.00;84.80
37974;DHT22;23796;51.458;7.000;2024-03-02T09:06:36;10.10;84.50
37974;DHT22;23796;51.458;7.000;2024-03-02T09:09:01;10.10;84.30
37974;DHT22;23796;51.458;7.000;2024-03-02T09:11:29;10.10;84.00
37974;DHT22;23796;51.458;7.000;2024-03-02T09:13:55;10.20;84.00
37974;DHT22;23796;51.458;7.000;2024-03-02T09:16:22;10.20;84.20
37974;DHT22;23796;51.458;7.000;2024-03-02T09:18:47;10.30;84.00
37974;DHT22;23796;51.458;7.000;2024-03-02T09:21:15;10.50;83.60
37974;DHT22;23796;51.458;7.000;2024-03-02T09:23:41;10.80;82.60
37974;DHT22;23796;51.458;7.000;2024-03-02T09:26:07;11.30;81.60
37974;DHT22;23796;51.458;7.000;2024-03-02T09:28:35;11.10;81.40
37974;DHT22;23796;51.458;7.000;2024-03-02T09:31:01;11.10;81.70
37974;DHT22;23796;51.458;7.000;2024-03-02T09:33:26;11.60;80.90
37974;DHT22;23796;51.458;7.000;2024-03-02T09:35:52;12.10;78.50
37974;DHT22;23796;51.458;7.000;2024-03-02T09:38:17;12.10;78.50
37974;DHT22;23796;51.458;7.000;2024-03-02T09:40:43;11.90;78.70
37974;DHT22;23796;51.458;7.000;2024-03-02T09:43:09;11.70;79.10
37974;DHT22;23796;51.458;7.000;2024-03-02T09:45:35;11.60;79.50
37974;DHT22;23796;51.458;7.000;2024-03-02T09:48:01;11.50;79.50
37974;DHT22;23796;51.458;7.000;2024-03-02T09:50:27;11.50;79.40
37974;DHT22;23796;51.458;7.000;2024-03-02T09:52:53;11.40;79.50
37974;DHT22;23796;51.458;7.000;2024-03-02T09:55:20;11.60;79.30
37974;DHT22;23796;51.458;7.000;2024-03-02T09:57:46;12.20;78.30
37974;DHT22;23796;51.458;7.000;2024-03-02T10:00:14;13.60;74.80
37974;DHT22;23796;51.458;7.000;2024-03-02T10:02:42;13.60;74.00
37974;DHT22;23796;51.458;7.000;2024-03-02T10:05:11;13.20;74.70
37974;DHT22;23796;51.458;7.000;2024-03-02T10:07:44;14.00;73.90
37974;DHT22;23796;51.458;7.000;2024-03-02T10:10:21;15.30;70.50
37974;DHT22;23796;51.458;7.000;2024-03-02T10:12:47;15.90;68.10
37974;DHT22;23796;51.458;7.000;2024-03-02T10:15:23;15.20;69.00
37974;DHT22;23796;51.458;7.000;2024-03-02T10:17:52;14.50;71.10
37974;DHT22;23796;51.458;7.000;2024-03-02T10:20:27;14.60;71.10
37974;DHT22;23796;51.458;7.000;2024-03-02T10:23:18;14.80;70.00
37974;DHT22;23796;51.458;7.000;2024-03-02T10:25:44;15.00;70.00
37974;DHT22;23796;51.458;7.000;2024-03-02T10:28:10;14.90;70.10
37974;DHT22;23796;51.458;7.000;2024-03-02T10:30:36;14.50;70.30
37974;DHT22;23796;51.458;7.000;2024-03-02T10:33:02;15.30;69.40
37974;DHT22;23796;51.458;7.000;2024-03-02T10:35:28;16.60;67.10
37974;DHT22;23796;51.458;7.000;2024-03-02T10:37:58;16.50;66.20
37974;DHT22;23796;51.458;7.000;2024-03-02T10:40:24;15.50;67.90
37974;DHT22;23796;51.458;7.000;2024-03-02T10:42:50;15.00;69.20
37974;DHT22;23796;51.458;7.000;2024-03-02T10:45:20;15.50;69.30
37974;DHT22;23796;51.458;7.000;2024-03-02T10:47:47;16.40;67.40
37974;DHT22;23796;51.458;7.000;2024-03-02T10:50:13;16.60;66.80
37974;DHT22;23796;51.458;7.000;2024-03-02T10:52:42;15.90;67.60
37974;DHT22;23796;51.458;7.000;2024-03-02T10:55:09;15.20;69.20
37974;DHT22;23796;51.458;7.000;2024-03-02T10:58:01;14.90;70.20
37974;DHT22;23796;51.458;7.000;2024-03-02T11:00:32;14.70;70.80
37974;DHT22;23796;51.458;7.000;2024-03-02T11:05:35;14.40;71.40
37974;DHT22;23796;51.458;7.000;2024-03-02T11:08:16;14.60;71.30
37974;DHT22;23796;51.458;7.000;2024-03-02T11:10:51;15.10;70.10
37974;DHT22;23796;51.458;7.000;2024-03-02T11:13:38;15.90;68.70
37974;DHT22;23796;51.458;7.000;2024-03-02T11:16:36;16.10;68.10
37974;DHT22;23796;51.458;7.000;2024-03-02T11:19:13;15.70;67.80
37974;DHT22;23796;51.458;7.000;2024-03-02T11:21:40;16.20;67.90
37974;DHT22;23796;51.458;7.000;2024-03-02T11:26:53;16.70;65.30
37974;DHT22;23796;51.458;7.000;2024-03-02T11:32:06;15.80;67.00
37974;DHT22;23796;51.458;7.000;2024-03-02T11:34:41;15.70;67.20
37974;DHT22;23796;51.458;7.000;2024-03-02T11:37:11;15.50;67.90
37974;DHT22;23796;51.458;7.000;2024-03-02T11:39:39;15.40;68.40
37974;DHT22;23796;51.458;7.000;2024-03-02T11:42:08;15.30;68.60
37974;DHT22;23796;51.458;7.000;2024-03-02T11:44:37;15.40;68.40
37974;DHT22;23796;51.458;7.000;2024-03-02T11:47:10;15.50;68.10
37974;DHT22;23796;51.458;7.000;2024-03-02T11:49:45;15.40;68.30
37974;DHT22;23796;51.458;7.000;2024-03-02T11:52:12;15.20;68.20
37974;DHT22;23796;51.458;7.000;2024-03-02T11:54:40;15.00;68.50
37974;DHT22;23796;51.458;7.000;2024-03-02T11:57:08;15.00;68.50
37974;DHT22;23796;51.458;7.000;2024-03-02T11:59:34;15.00;68.30
37974;DHT22;23796;51.458;7.000;2024-03-02T12:02:01;15.00;68.40
37974;DHT22;23796;51.458;7.000;2024-03-02T12:04:29;15.00;68.30
37974;DHT22;23796;51.458;7.000;2024-03-02T12:07:00;15.00;68.20
37974;DHT22;23796;51.458;7.000;2024-03-02T12:09:29;14.80;68.20
37974;DHT22;23796;51.458;7.000;2024-03-02T12:12:05;14.90;68.60
37974;DHT22;23796;51.458;7.000;2024-03-02T12:14:36;15.00;68.20
37974;DHT22;23796;51.458;7.000;2024-03-02T12:17:03;14.90;68.30
37974;DHT22;23796;51.458;7.000;2024-03-02T12:19:32;14.70;69.00
37974;DHT22;23796;51.458;7.000;2024-03-02T12:21:58;14.80;69.10
37974;DHT22;23796;51.458;7.000;2024-03-02T12:24:26;14.80;69.30
37974;DHT22;23796;51.458;7.000;2024-03-02T12:26:53;14.80;68.90
37974;DHT22;23796;51.458;7.000;2024-03-02T12:29:20;14.80;69.00
37974;DHT22;23796;51.458;7.000;2024-03-02T12:31:49;14.70;69.40
37974;DHT22;23796;51.458;7.000;2024-03-02T12:34:15;14.70;69.80
37974;DHT22;23796;51.458;7.000;2024-03-02T12:36:42;14.80;70.00
37974;DHT22;23796;51.458;7.000;2024-03-02T12:39:08;14.90;70.00
37974;DHT22;23796;51.458;7.000;2024-03-02T12:41:39;15.00;69.60
37974;DHT22;23796;51.458;7.000;2024-03-02T12:44:05;15.10;69.50
37974;DHT22;23796;51.458;7.000;2024-03-02T12:46:32;15.20;69.10
37974;DHT22;23796;51.458;7.000;2024-03-02T12:48:58;15.30;68.70
37974;DHT22;23796;51.458;7.000;2024-03-02T12:51:30;15.40;68.50
37974;DHT22;23796;51.458;7.000;2024-03-02T12:53:57;15.40;68.30
37974;DHT22;23796;51.458;7.000;2024-03-02T12:56:25;15.50;68.40
37974;DHT22;23796;51.458;7.000;2024-03-02T12:58:58;15.60;68.10
37974;DHT22;23796;51.458;7.000;2024-03-02T13:01:26;15.60;67.90
37974;DHT22;23796;51.458;7.000;2024-03-02T13:03:53;15.60;67.80
37974;DHT22;23796;51.458;7.000;2024-03-02T13:06:20;15.60;67.70
37974;DHT22;23796;51.458;7.000;2024-03-02T13:08:46;15.60;67.80
37974;DHT22;23796;51.458;7.000;2024-03-02T13:11:13;15.60;67.90
37974;DHT22;23796;51.458;7.000;2024-03-02T13:13:39;15.40;68.40
37974;DHT22;23796;51.458;7.000;2024-03-02T13:16:11;15.30;68.60
37974;DHT22;23796;51.458;7.000;2024-03-02T13:18:44;15.40;68.70
37974;DHT22;23796;51.458;7.000;2024-03-02T13:21:09;15.40;68.70
37974;DHT22;23796;51.458;7.000;2024-03-02T13:23:35;15.40;68.80
37974;DHT22;23796;51.458;7.000;2024-03-02T13:26:01;15.30;68.90
37974;DHT22;23796;51.458;7.000;2024-03-02T13:28:29;15.40;68.70
37974;DHT22;23796;51.458;7.000;2024-03-02T13:30:57;15.30;68.50
37974;DHT22;23796;51.458;7.000;2024-03-02T13:33:23;15.40;68.50
37974;DHT22;23796;51.458;7.000;2024-03-02T13:35:49;15.50;68.20
37974;DHT22;23796;51.458;7.000;2024-03-02T13:38:19;15.50;68.30
37974;DHT22;23796;51.458;7.000;2024-03-02T13:40:49;15.50;68.50
37974;DHT22;23796;51.458;7.000;2024-03-02T13:43:18;15.40;68.60
37974;DHT22;23796;51.458;7.000;2024-03-02T13:45:47;15.50;68.80
37974;DHT22;23796;51.458;7.000;2024-03-02T13:48:13;15.50;68.80
37974;DHT22;23796;51.458;7.000;2024-03-02T13:50:40;15.60;68.00
37974;DHT22;23796;51.458;7.000;2024-03-02T13:53:07;15.70;68.00
37974;DHT22;23796;51.458;7.000;2024-03-02T13:55:36;15.80;67.90
37974;DHT22;23796;51.458;7.000;2024-03-02T13:58:02;15.60;67.80
37974;DHT22;23796;51.458;7.000;2024-03-02T14:00:28;15.50;68.00
37974;DHT22;23796;51.458;7.000;2024-03-02T14:02:55;15.50;68.00
37974;DHT22;23796;51.458;7.000;2024-03-02T14:05:23;15.40;68.20
37974;DHT22;23796;51.458;7.000;2024-03-02T14:07:49;15.40;68.30
37974;DHT22;23796;51.458;7.000;2024-03-02T14:10:14;15.50;68.20
37974;DHT22;23796;51.458;7.000;2024-03-02T14:12:41;15.50;68.00
37974;DHT22;23796;51.458;7.000;2024-03-02T14:15:07;15.40;68.10
37974;DHT22;23796;51.458;7.000;2024-03-02T14:17:33;15.30;68.10
37974;DHT22;23796;51.458;7.000;2024-03-02T14:19:59;15.30;68.30
37974;DHT22;23796;51.458;7.000;2024-03-02T14:22:25;15.30;68.50
37974;DHT22;23796;51.458;7.000;2024-03-02T14:24:51;15.30;68.10
37974;DHT22;23796;51.458;7.000;2024-03-02T14:27:16;15.40;68.30
37974;DHT22;23796;51.458;7.000;2024-03-02T14:29:43;15.50;68.40
37974;DHT22;23796;51.458;7.000;2024-03-02T14:32:08;15.60;67.90
37974;DHT22;23796;51.458;7.000;2024-03-02T14:34:36;15.60;67.80
37974;DHT22;23796;51.458;7.000;2024-03-02T14:37:02;15.60;67.90
37974;DHT22;23796;51.458;7.000;2024-03-02T14:39:30;15.70;67.70
37974;DHT22;23796;51.458;7.000;2024-03-02T14:42:00;15.80;67.40
37974;DHT22;23796;51.458;7.000;2024-03-02T14:44:29;15.80;67.40
37974;DHT22;23796;51.458;7.000;2024-03-02T14:46:57;15.80;67.10
37974;DHT22;23796;51.458;7.000;2024-03-02T14:49:26;15.80;67.40
37974;DHT22;23796;51.458;7.000;2024-03-02T14:51:52;15.70;67.40
37974;DHT22;23796;51.458;7.000;2024-03-02T14:54:20;15.70;67.40
37974;DHT22;23796;51.458;7.000;2024-03-02T14:56:48;15.70;67.60
37974;DHT22;23796;51.458;7.000;2024-03-02T14:59:14;15.80;67.40
37974;DHT22;23796;51.458;7.000;2024-03-02T15:01:40;15.90;67.30
37974;DHT22;23796;51.458;7.000;2024-03-02T15:04:05;15.80;67.10
37974;DHT22;23796;51.458;7.000;2024-03-02T15:06:31;15.80;67.30
37974;DHT22;23796;51.458;7.000;2024-03-02T15:08:57;15.80;67.50
37974;DHT22;23796;51.458;7.000;2024-03-02T15:11:22;15.70;67.50
37974;DHT22;23796;51.458;7.000;2024-03-02T15:13:50;15.70;67.50
37974;DHT22;23796;51.458;7.000;2024-03-02T15:16:16;15.60;67.50
37974;DHT22;23796;51.458;7.000;2024-03-02T15:18:41;15.50;67.80
37974;DHT22;23796;51.458;7.000;2024-03-02T15:21:07;15.50;67.90
37974;DHT22;23796;51.458;7.000;2024-03-02T15:23:32;15.40;68.10
37974;DHT22;23796;51.458;7.000;2024-03-02T15:26:02;15.40;68.20
37974;DHT22;23796;51.458;7.000;2024-03-02T15:28:27;15.40;68.30
37974;DHT22;23796;51.458;7.000;2024-03-02T15:30:53;15.20;68.80
37974;DHT22;23796;51.458;7.000;2024-03-02T15:33:18;15.20;69.20
37974;DHT22;23796;51.458;7.000;2024-03-02T15:35:44;15.10;69.70
37974;DHT22;23796;51.458;7.000;2024-03-02T15:38:10;15.00;69.90
37974;DHT22;23796;51.458;7.000;2024-03-02T15:40:40;14.90;70.20
37974;DHT22;23796;51.458;7.000;2024-03-02T15:43:06;14.90;70.30
37974;DHT22;23796;51.458;7.000;2024-03-02T15:45:31;14.90;70.40
37974;DHT22;23796;51.458;7.000;2024-03-02T15:48:00;14.90;70.60
37974;DHT22;23796;51.458;7.000;2024-03-02T15:50:29;14.80;70.60
37974;DHT22;23796;51.458;7.000;2024-03-02T15:52:54;14.80;70.80